createdAt,value
2019-02-06T00:00:28.488Z,66.23
2019-02-06T00:05:29.865Z,66.14
2019-02-06T00:10:31.233Z,65.80
2019-02-06T00:15:32.611Z,65.68
2019-02-06T00:20:33.994Z,65.99
2019-02-06T00:25:35.320Z,65.63
2019-02-06T00:30:37.561Z,65.67
2019-02-06T00:35:38.961Z,65.85
2019-02-06T00:40:41.019Z,66.01
2019-02-06T00:45:42.356Z,65.62
2019-02-06T00:50:43.723Z,65.93
2019-02-06T00:55:45.160Z,65.39
2019-02-06T01:00:46.577Z,65.64
2019-02-06T01:05:48.687Z,65.45
2019-02-06T01:10:50.046Z,65.93
2019-02-06T01:15:51.437Z,65.88
2019-02-06T01:20:52.812Z,66.17
2019-02-06T01:25:54.206Z,65.69
2019-02-06T01:30:55.545Z,65.84
2019-02-06T01:35:57.024Z,65.67
2019-02-06T01:40:58.379Z,65.67
2019-02-06T01:45:59.751Z,65.59
2019-02-06T01:51:01.100Z,65.81
2019-02-06T01:56:02.431Z,65.91
2019-02-06T02:01:03.902Z,66.02
2019-02-06T02:06:05.321Z,65.97
2019-02-06T02:11:06.661Z,65.98
2019-02-06T02:16:08.017Z,65.81
2019-02-06T02:21:09.414Z,65.63
2019-02-06T02:26:11.560Z,65.88
2019-02-06T02:31:12.950Z,65.99
2019-02-06T02:36:16.474Z,65.67
2019-02-06T02:41:16.523Z,65.47
2019-02-06T02:46:17.939Z,65.56
2019-02-06T02:51:19.419Z,65.59
2019-02-06T02:56:20.797Z,65.71
2019-02-06T03:01:28.991Z,65.51
2019-02-06T03:06:30.527Z,65.95
2019-02-06T03:11:31.836Z,65.33
2019-02-06T03:16:41.111Z,64.96
2019-02-06T03:21:47.600Z,65.69
2019-02-06T03:26:48.925Z,65.52
2019-02-06T03:31:50.286Z,65.31
2019-02-06T03:36:51.665Z,65.34
2019-02-06T03:41:52.999Z,65.23
2019-02-06T03:46:54.397Z,65.61
2019-02-06T03:51:55.780Z,64.76
2019-02-06T03:56:57.130Z,65.00
2019-02-06T04:01:58.513Z,65.36
2019-02-06T04:07:01.071Z,66.19
2019-02-06T04:12:02.959Z,65.74
2019-02-06T04:17:08.469Z,65.81
2019-02-06T04:22:09.829Z,65.13
2019-02-06T04:27:11.228Z,65.40
2019-02-06T04:32:12.564Z,65.43
2019-02-06T04:37:14.014Z,65.12
2019-02-06T04:42:15.372Z,64.93
2019-02-06T04:47:17.487Z,64.70
2019-02-06T04:52:18.945Z,64.87
2019-02-06T04:57:20.387Z,64.43
2019-02-06T05:02:22.538Z,63.71
2019-02-06T05:07:24.699Z,64.14
2019-02-06T05:12:26.049Z,63.53
2019-02-06T05:17:27.593Z,64.06
2019-02-06T05:22:29.669Z,63.87
2019-02-06T05:27:31.828Z,63.38
2019-02-06T05:32:33.958Z,63.88
2019-02-06T05:37:35.330Z,63.04
2019-02-06T05:42:36.787Z,63.17
2019-02-06T05:47:38.325Z,62.75
2019-02-06T05:52:39.744Z,62.31
2019-02-06T05:57:41.106Z,62.15
2019-02-06T06:02:42.477Z,61.41
2019-02-06T06:07:45.501Z,61.34
2019-02-06T06:12:46.103Z,61.40
2019-02-06T06:17:47.478Z,61.17
2019-02-06T06:22:48.908Z,60.48
2019-02-06T06:27:50.255Z,61.01
2019-02-06T06:32:51.608Z,60.97
2019-02-06T06:37:59.799Z,60.64
2019-02-06T06:42:54.613Z,60.55
2019-02-06T06:47:55.965Z,60.18
2019-02-06T06:52:58.371Z,60.08
2019-02-06T06:57:59.840Z,59.95
2019-02-06T07:03:01.124Z,59.86
2019-02-06T07:08:09.595Z,59.46
2019-02-06T07:13:03.923Z,59.87
2019-02-06T07:18:05.251Z,59.02
2019-02-06T07:23:07.331Z,58.60
2019-02-06T07:28:09.408Z,58.37
2019-02-06T07:33:11.596Z,58.16
2019-02-06T07:38:23.579Z,57.63
2019-02-06T07:43:14.351Z,57.41
2019-02-06T07:48:18.935Z,57.30
2019-02-06T07:53:27.844Z,57.11
2019-02-06T07:58:29.163Z,57.08
2019-02-06T08:03:30.662Z,57.65
2019-02-06T08:08:36.161Z,57.68
2019-02-06T08:13:33.252Z,58.45
2019-02-06T08:18:34.582Z,58.51
2019-02-06T08:23:35.907Z,58.32
2019-02-06T08:28:37.231Z,57.74
2019-02-06T08:33:38.566Z,57.46
2019-02-06T08:38:47.421Z,57.84
2019-02-06T08:43:41.256Z,57.41
2019-02-06T08:48:42.572Z,56.69
2019-02-06T08:53:43.889Z,57.12
2019-02-06T08:58:45.235Z,57.23
2019-02-06T09:03:46.559Z,57.21
2019-02-06T09:08:58.979Z,57.30
2019-02-06T09:13:50.031Z,56.77
2019-02-06T09:18:52.110Z,56.74
2019-02-06T09:23:53.466Z,57.17
2019-02-06T09:28:54.813Z,57.60
2019-02-06T09:33:56.122Z,57.23
2019-02-06T09:38:57.394Z,56.77
2019-02-06T09:43:58.686Z,57.05
2019-02-06T09:49:00.037Z,56.29
2019-02-06T09:54:01.383Z,56.68
2019-02-06T09:59:02.744Z,56.69
2019-02-06T10:04:04.056Z,55.98
2019-02-06T10:09:05.400Z,57.08
2019-02-06T10:14:06.753Z,58.27
2019-02-06T10:19:08.086Z,58.53
2019-02-06T10:24:10.105Z,58.64
2019-02-06T10:29:11.387Z,58.88
2019-02-06T10:34:12.728Z,58.94
2019-02-06T10:39:14.136Z,58.93
2019-02-06T10:44:15.510Z,59.20
2019-02-06T10:49:16.872Z,58.60
2019-02-06T10:54:18.163Z,58.69
2019-02-06T10:59:19.517Z,58.37
2019-02-06T11:04:20.914Z,60.15
2019-02-06T11:09:22.218Z,60.29
2019-02-06T11:14:23.551Z,61.32
2019-02-06T11:19:24.906Z,61.00
2019-02-06T11:24:26.879Z,59.79
2019-02-06T11:29:27.561Z,61.55
2019-02-06T11:34:28.965Z,60.94
2019-02-06T11:39:30.268Z,60.27
2019-02-06T11:44:31.628Z,59.20
2019-02-06T11:49:32.920Z,59.94
2019-02-06T11:54:34.221Z,60.74
2019-02-06T11:59:35.560Z,58.59
2019-02-06T12:04:36.919Z,57.89
2019-02-06T12:09:38.989Z,57.58
2019-02-06T12:14:40.392Z,60.16
2019-02-06T12:19:41.803Z,59.34
2019-02-06T12:24:43.049Z,60.26
2019-02-06T12:29:44.393Z,58.30
2019-02-06T12:34:46.595Z,59.33
2019-02-06T12:39:47.969Z,59.15
2019-02-06T12:44:49.295Z,61.03
2019-02-06T12:49:50.953Z,60.76
2019-02-06T12:54:53.033Z,60.30
2019-02-06T12:59:54.349Z,58.20
2019-02-06T13:04:55.695Z,59.24
2019-02-06T13:09:57.013Z,60.48
2019-02-06T13:14:58.348Z,59.25
2019-02-06T13:19:59.660Z,57.18
2019-02-06T13:25:00.993Z,55.45
2019-02-06T13:30:02.321Z,53.62
2019-02-06T13:35:03.633Z,54.18
2019-02-06T13:40:06.674Z,52.14
2019-02-06T13:45:08.822Z,53.02
2019-02-06T13:50:21.293Z,51.86
2019-02-06T13:55:14.595Z,52.13
2019-02-06T14:00:26.936Z,51.89
2019-02-06T14:05:28.227Z,53.32
2019-02-06T14:10:29.568Z,53.29
2019-02-06T14:15:32.463Z,52.64
2019-02-06T14:20:33.812Z,51.09
2019-02-06T14:25:46.885Z,52.25
2019-02-06T14:37:03.363Z,52.71
2019-02-06T14:42:13.451Z,53.37
2019-02-06T14:47:36.571Z,52.06
2019-02-06T14:59:07.131Z,53.63
2019-02-06T15:10:14.617Z,54.90
2019-02-06T15:21:13.511Z,55.67
2019-02-06T15:26:21.857Z,55.57
2019-02-06T15:31:38.951Z,55.34
2019-02-06T15:42:43.308Z,56.02
2019-02-06T15:48:18.019Z,56.10
2019-02-06T15:53:23.624Z,55.99
2019-02-06T15:58:32.561Z,56.21
2019-02-06T16:09:21.988Z,57.14
2019-02-06T16:14:47.203Z,57.57
2019-02-06T16:20:15.533Z,57.89
2019-02-06T16:25:24.507Z,58.28
2019-02-06T16:30:40.705Z,58.36
2019-02-06T16:41:40.628Z,58.44
2019-02-06T16:52:45.085Z,58.68
2019-02-06T17:09:39.470Z,58.82
2019-02-06T17:14:44.740Z,59.58
2019-02-06T17:31:43.514Z,59.53
2019-02-06T17:36:47.955Z,59.89
2019-02-06T17:48:36.738Z,59.75
2019-02-06T17:53:50.217Z,60.40
2019-02-06T17:58:51.564Z,61.11
2019-02-06T18:03:55.503Z,61.16
2019-02-06T18:08:57.954Z,61.88
2019-02-06T18:14:00.538Z,61.56
2019-02-06T18:19:02.119Z,61.62
2019-02-06T18:24:05.513Z,61.83
2019-02-06T18:29:07.651Z,62.31
2019-02-06T18:34:09.036Z,62.29
2019-02-06T18:39:10.742Z,61.74
2019-02-06T18:44:12.355Z,62.00
2019-02-06T18:49:13.716Z,61.93
2019-02-06T18:54:15.082Z,62.06
2019-02-06T18:59:17.643Z,62.36
2019-02-06T19:04:19.044Z,61.99
2019-02-06T19:09:20.402Z,62.02
2019-02-06T19:14:22.084Z,62.55
2019-02-06T19:19:25.474Z,62.06
2019-02-06T19:24:24.736Z,62.13
2019-02-06T19:29:26.793Z,62.04
2019-02-06T19:34:28.125Z,62.00
2019-02-06T19:39:29.484Z,62.23
2019-02-06T19:44:30.925Z,62.29
2019-02-06T19:49:32.257Z,62.35
2019-02-06T19:54:33.618Z,62.00
2019-02-06T19:59:34.973Z,62.35
2019-02-06T20:04:36.283Z,62.39
2019-02-06T20:09:38.189Z,62.05
2019-02-06T20:14:43.261Z,62.43
2019-02-06T20:19:45.983Z,61.71
2019-02-06T20:24:48.489Z,61.02
2019-02-06T20:29:50.698Z,61.91
2019-02-06T20:34:56.613Z,62.28
2019-02-06T20:39:58.783Z,62.12
2019-02-06T20:45:01.240Z,62.18
2019-02-06T20:50:02.582Z,62.22
2019-02-06T20:55:04.671Z,62.45
2019-02-06T21:00:11.942Z,62.46
2019-02-06T21:05:13.456Z,62.43
2019-02-06T21:10:25.278Z,62.20
2019-02-06T21:15:26.658Z,62.22
2019-02-06T21:20:28.016Z,62.79
2019-02-06T21:25:29.449Z,62.70
2019-02-06T21:30:33.686Z,62.44
2019-02-06T21:35:35.756Z,62.33
2019-02-06T21:40:42.764Z,62.50
2019-02-06T21:45:47.933Z,62.14
2019-02-06T21:50:50.258Z,61.83
2019-02-06T22:01:07.013Z,62.47
2019-02-06T22:06:18.259Z,62.85
2019-02-06T22:11:22.973Z,62.93
2019-02-06T22:16:26.373Z,62.45
2019-02-06T22:21:36.434Z,63.05
2019-02-06T22:26:49.330Z,63.08
2019-02-06T22:31:55.423Z,63.45
2019-02-06T22:37:01.935Z,63.90
2019-02-06T22:42:18.897Z,63.60
2019-02-06T22:47:23.251Z,63.38
2019-02-06T22:52:28.511Z,63.05
2019-02-06T22:57:33.627Z,63.28
2019-02-06T23:02:35.624Z,63.29
2019-02-06T23:12:55.641Z,63.68
2019-02-06T23:18:03.108Z,63.78
2019-02-06T23:23:08.373Z,63.63
2019-02-06T23:28:09.675Z,64.35
2019-02-06T23:33:11.001Z,64.19
2019-02-06T23:38:12.340Z,63.85
2019-02-06T23:43:13.665Z,64.29
2019-02-06T23:48:15.067Z,64.36
2019-02-06T23:53:16.432Z,64.43
2019-02-06T23:58:17.993Z,64.48
